Time;durP1;ratioP1;P1;durP2;ratioP2;P2;SDS_P1;SDS_P2;PMS_P1;PMS_P2;Temp;Humidity;BMP_temperature;BMP_pressure;BME280_temperature;BME280_humidity;BME280_pressure;Samples;Min_cycle;Max_cycle;Signal;HPM_P1;HPM_P2
2021/09/05 00:01:21;;;;;;;9.93;7.97;;;;;;;21.06;58.92;101869.63;5035295;28;20112;-62
2021/09/05 00:03:46;;;;;;;9.52;7.95;;;;;;;21.06;58.90;101874.94;5035174;28;20068;-62
2021/09/05 00:06:11;;;;;;;9.47;7.70;;;;;;;21.06;59.06;101868.78;5034132;28;20041;-62
2021/09/05 00:08:36;;;;;;;9.33;7.43;;;;;;;21.04;58.89;101868.88;5034992;28;20600;-63
2021/09/05 00:11:02;;;;;;;9.93;7.63;;;;;;;21.03;58.94;101877.81;5034419;28;20310;-62
2021/09/05 00:13:27;;;;;;;9.30;7.53;;;;;;;21.04;58.92;101878.66;5034272;28;20121;-62
2021/09/05 00:15:55;;;;;;;9.20;7.60;;;;;;;21.02;58.71;101870.81;5034314;28;20021;-62
2021/09/05 00:18:20;;;;;;;10.73;7.63;;;;;;;21.02;58.81;101866.34;5034802;28;20454;-62
2021/09/05 00:20:46;;;;;;;10.53;7.67;;;;;;;21.02;58.71;101873.47;5033803;28;20100;-63
2021/09/05 00:23:13;;;;;;;9.87;8.23;;;;;;;21.01;58.78;101872.63;5034446;28;20274;-64
2021/09/05 00:25:39;;;;;;;10.82;7.82;;;;;;;21.01;58.94;101871.78;5033760;28;20267;-63
2021/09/05 00:28:07;;;;;;;10.05;7.53;;;;;;;21.00;58.75;101870.09;5034543;28;20446;-63
2021/09/05 00:30:33;;;;;;;9.50;7.65;;;;;;;21.00;58.71;101872.75;5034561;28;20393;-62
2021/09/05 00:32:58;;;;;;;11.63;7.83;;;;;;;20.99;58.62;101877.19;5033627;28;20423;-62
2021/09/05 00:35:24;;;;;;;9.52;7.78;;;;;;;20.99;58.66;101871.88;5034552;28;20754;-62
2021/09/05 00:37:49;;;;;;;9.70;7.95;;;;;;;20.99;58.70;101868.41;5034096;28;20104;-62
2021/09/05 00:40:14;;;;;;;9.43;7.70;;;;;;;20.97;58.63;101865.03;5033432;28;20021;-62
2021/09/05 00:42:40;;;;;;;10.60;7.95;;;;;;;20.98;58.65;101864.94;5034388;28;20324;-61
2021/09/05 00:45:06;;;;;;;10.00;8.20;;;;;;;20.98;58.55;101861.41;5034016;28;20044;-63
2021/09/05 00:47:31;;;;;;;9.93;7.75;;;;;;;20.97;58.46;101859.75;5033367;28;20056;-62
2021/09/05 00:50:00;;;;;;;10.07;7.75;;;;;;;20.95;58.54;101862.50;5033820;28;20068;-63
2021/09/05 00:52:25;;;;;;;9.55;8.10;;;;;;;20.96;58.65;101860.69;5034090;28;20033;-62
2021/09/05 00:54:51;;;;;;;9.20;7.65;;;;;;;20.95;58.61;101859.00;5035824;28;20045;-62
2021/09/05 00:57:18;;;;;;;13.50;8.38;;;;;;;20.96;58.27;101860.69;5037503;28;20477;-62
2021/09/05 00:59:48;;;;;;;9.80;7.80;;;;;;;20.94;58.36;101854.69;5034953;28;20485;-62
2021/09/05 01:02:13;;;;;;;10.52;8.05;;;;;;;20.93;58.63;101859.13;5034695;28;20371;-62
2021/09/05 01:04:39;;;;;;;10.75;7.68;;;;;;;20.93;58.46;101856.47;5035325;28;20052;-61
2021/09/05 01:07:04;;;;;;;9.85;7.90;;;;;;;20.93;58.44;101856.47;5042051;28;20021;-62
2021/09/05 01:09:30;;;;;;;10.10;7.80;;;;;;;20.91;58.27;101850.44;5042723;28;20072;-61
2021/09/05 01:11:56;;;;;;;8.98;7.47;;;;;;;20.92;58.63;101852.16;5041928;28;20029;-62
2021/09/05 01:14:28;;;;;;;10.57;8.20;;;;;;;20.90;58.40;101862.00;5042255;28;20484;-62
2021/09/05 01:16:54;;;;;;;9.70;7.68;;;;;;;20.91;58.50;101854.91;5041325;28;20029;-62
2021/09/05 01:19:21;;;;;;;9.32;7.68;;;;;;;20.91;58.21;101846.97;5042819;28;20022;-62
2021/09/05 01:21:49;;;;;;;10.52;8.23;;;;;;;20.91;58.28;101850.44;5043510;28;20037;-62
2021/09/05 01:24:16;;;;;;;10.77;8.00;;;;;;;20.91;58.46;101854.91;5043240;28;20079;-63
2021/09/05 01:26:45;;;;;;;9.27;7.85;;;;;;;20.91;58.37;101847.81;5041003;28;20112;-62
2021/09/05 01:29:11;;;;;;;9.40;7.60;;;;;;;20.89;58.27;101844.44;5031399;28;20477;-62
2021/09/05 01:31:40;;;;;;;10.23;8.18;;;;;;;20.90;58.40;101848.75;5032816;28;20095;-62
2021/09/05 01:34:06;;;;;;;9.30;7.47;;;;;;;20.90;58.27;101847.91;5033318;28;20059;-62
2021/09/05 01:36:36;;;;;;;9.60;7.75;;;;;;;20.89;58.41;101852.38;5032644;28;20578;-62
2021/09/05 01:39:03;;;;;;;9.70;7.90;;;;;;;20.88;58.29;101852.50;5032997;28;20116;-62
2021/09/05 01:41:28;;;;;;;9.05;7.57;;;;;;;20.89;58.06;101862.16;5033316;28;20043;-62
2021/09/05 01:44:07;;;;;;;10.27;7.83;;;;;;;20.88;58.35;101865.75;5032233;28;20412;-62
2021/09/05 01:46:32;;;;;;;9.80;7.75;;;;;;;20.86;58.26;101857.09;5032930;28;20636;-62
2021/09/05 01:48:58;;;;;;;9.43;7.57;;;;;;;20.88;58.31;101860.44;5032798;28;20060;-62
2021/09/05 01:51:24;;;;;;;9.10;7.20;;;;;;;20.87;58.09;101862.25;5032579;28;20461;-61
2021/09/05 01:53:49;;;;;;;9.85;7.25;;;;;;;20.84;58.26;101865.97;5033548;28;20053;-62
2021/09/05 01:56:14;;;;;;;11.00;7.88;;;;;;;20.84;58.15;101865.97;5033934;28;20036;-62
2021/09/05 01:58:40;;;;;;;10.23;7.68;;;;;;;20.84;58.28;101871.28;5032285;28;20068;-61
2021/09/05 02:01:05;;;;;;;10.07;7.90;;;;;;;20.85;58.22;101866.81;5032734;28;20167;-63
2021/09/05 02:03:30;;;;;;;9.10;7.60;;;;;;;20.85;58.18;101874.75;5032626;28;20025;-62
2021/09/05 02:05:59;;;;;;;9.00;7.43;;;;;;;20.84;58.23;101870.44;5031707;28;20495;-61
2021/09/05 02:08:24;;;;;;;9.43;7.68;;;;;;;20.84;58.19;101871.28;5032702;28;20021;-62
2021/09/05 02:10:49;;;;;;;10.75;7.30;;;;;;;20.83;58.06;101874.88;5032459;28;20025;-62
2021/09/05 02:13:15;;;;;;;9.38;7.53;;;;;;;20.82;58.12;101877.66;5032373;28;20122;-62
2021/09/05 02:15:40;;;;;;;9.85;7.80;;;;;;;20.83;57.84;101887.28;5032440;28;20462;-61
2021/09/05 02:18:06;;;;;;;9.77;7.13;;;;;;;20.81;58.18;101881.28;5032157;28;20112;-62
2021/09/05 02:20:31;;;;;;;8.73;7.20;;;;;;;20.81;58.04;101875.97;5032041;28;20048;-62
2021/09/05 02:22:56;;;;;;;9.63;7.63;;;;;;;20.81;58.00;101887.41;5032094;28;20025;-62
2021/09/05 02:25:22;;;;;;;9.65;7.93;;;;;;;20.81;58.08;101882.13;5031666;28;20033;-61
2021/09/05 02:27:47;;;;;;;10.43;7.83;;;;;;;20.81;57.86;101882.13;5032384;28;20051;-62
2021/09/05 02:30:13;;;;;;;9.93;7.35;;;;;;;20.81;58.04;101882.13;5032367;28;20750;-62
2021/09/05 02:32:38;;;;;;;8.98;7.05;;;;;;;20.80;58.01;101879.56;5031529;28;20022;-62
2021/09/05 02:35:05;;;;;;;8.93;7.53;;;;;;;20.80;57.89;101880.41;5031869;28;20021;-62
2021/09/05 02:37:31;;;;;;;8.70;7.07;;;;;;;20.79;57.80;101884.03;5032302;28;20104;-62
2021/09/05 02:39:56;;;;;;;9.55;7.28;;;;;;;20.79;57.91;101885.81;5031272;28;20105;-62
2021/09/05 02:42:22;;;;;;;8.57;7.35;;;;;;;20.79;57.95;101883.19;5032263;28;20041;-62
2021/09/05 02:44:47;;;;;;;10.13;7.55;;;;;;;20.78;57.89;101886.81;5031885;28;20017;-61
2021/09/05 02:47:12;;;;;;;8.60;6.95;;;;;;;20.78;57.79;101887.66;5031428;28;20025;-62
2021/09/05 02:49:37;;;;;;;10.38;7.45;;;;;;;20.79;57.85;101888.47;5032387;28;20374;-61
2021/09/05 02:52:05;;;;;;;9.50;7.90;;;;;;;20.77;57.95;101875.34;5031693;28;20036;-62
2021/09/05 02:54:31;;;;;;;8.60;7.10;;;;;;;20.77;57.73;101878.00;5031358;28;20302;-62
2021/09/05 02:56:56;;;;;;;9.48;7.22;;;;;;;20.77;57.91;101877.16;5031989;28;20068;-62
2021/09/05 02:59:21;;;;;;;8.80;7.35;;;;;;;20.77;57.76;101879.81;5032548;28;20152;-62
2021/09/05 03:01:46;;;;;;;10.47;7.67;;;;;;;20.76;57.66;101875.47;5031711;28;20053;-61
2021/09/05 03:04:11;;;;;;;10.17;8.00;;;;;;;20.75;57.72;101874.63;5032094;28;20274;-62
2021/09/05 03:06:37;;;;;;;9.20;7.23;;;;;;;20.76;57.79;101876.31;5032492;28;20288;-62
2021/09/05 03:09:02;;;;;;;10.17;7.50;;;;;;;20.72;57.86;101869.56;5031655;28;20025;-62
2021/09/05 03:11:28;;;;;;;9.40;7.72;;;;;;;20.75;57.68;101879.94;5032648;28;20369;-62
2021/09/05 03:13:53;;;;;;;9.30;7.30;;;;;;;20.75;57.17;101877.28;5032231;28;20021;-62
2021/09/05 03:16:18;;;;;;;10.52;8.02;;;;;;;20.62;57.81;101861.44;5031696;28;20056;-62
2021/09/05 03:18:44;;;;;;;9.93;7.20;;;;;;;20.75;57.50;101889.69;5032188;28;20079;-61
2021/09/05 03:21:09;;;;;;;9.40;7.40;;;;;;;20.74;57.88;101890.63;5031999;28;20113;-61
2021/09/05 03:23:34;;;;;;;8.65;6.43;;;;;;;20.70;57.40;101884.75;5031550;28;20282;-62
2021/09/05 03:25:59;;;;;;;10.13;7.22;;;;;;;20.72;57.66;101887.28;5032357;28;20096;-62
2021/09/05 03:28:25;;;;;;;9.40;6.90;;;;;;;20.72;57.87;101893.41;5032075;28;20021;-62
2021/09/05 03:30:52;;;;;;;10.95;7.38;;;;;;;20.72;57.77;101882.81;5030665;28;20052;-62
2021/09/05 03:33:18;;;;;;;8.32;6.82;;;;;;;20.71;57.52;101883.78;5031685;28;20021;-62
2021/09/05 03:35:43;;;;;;;9.05;7.15;;;;;;;20.72;57.56;101887.28;5030983;28;20033;-63
2021/09/05 03:38:08;;;;;;;9.63;7.10;;;;;;;20.72;57.37;101887.28;5031488;28;20031;-62
2021/09/05 03:40:34;;;;;;;9.98;7.35;;;;;;;20.72;57.60;101889.91;5031835;28;20232;-62
2021/09/05 03:43:00;;;;;;;8.85;6.82;;;;;;;20.70;57.47;101889.19;5030516;28;20017;-63
2021/09/05 03:45:25;;;;;;;9.40;7.00;;;;;;;20.70;57.38;101889.19;5031514;28;20043;-62
2021/09/05 03:47:50;;;;;;;10.27;6.97;;;;;;;20.69;57.46;101893.63;5031144;28;20278;-63
2021/09/05 03:50:16;;;;;;;9.70;7.13;;;;;;;20.70;57.33;101894.50;5030964;28;20021;-62
2021/09/05 03:52:42;;;;;;;9.02;6.90;;;;;;;20.70;57.33;101889.19;5031625;28;20655;-63
2021/09/05 03:55:08;;;;;;;10.15;6.88;;;;;;;20.69;57.21;101892.81;5033177;28;20053;-62
2021/09/05 03:57:33;;;;;;;8.73;6.65;;;;;;;20.68;57.29;101894.63;5034418;28;20116;-62
2021/09/05 03:59:59;;;;;;;9.10;6.93;;;;;;;20.67;57.21;101895.56;5034534;28;20063;-62
2021/09/05 04:02:24;;;;;;;8.70;6.90;;;;;;;20.65;57.12;101886.91;5034792;28;20289;-62
2021/09/05 04:04:49;;;;;;;8.40;6.68;;;;;;;20.67;57.10;101894.72;5034005;28;20282;-62
2021/09/05 04:07:18;;;;;;;9.00;7.45;;;;;;;20.64;57.10;101899.28;5035108;28;20048;-62
2021/09/05 04:12:26;;;;;;;9.27;7.30;;;;;;;20.65;56.93;101898.31;5034140;28;20044;-63
2021/09/05 04:14:55;;;;;;;9.30;6.83;;;;;;;20.63;57.05;101888.75;5034430;28;21122;-63
2021/09/05 04:17:20;;;;;;;8.15;6.70;;;;;;;20.63;57.03;101886.13;5034937;28;20281;-62
2021/09/05 04:19:45;;;;;;;8.98;7.00;;;;;;;20.63;57.00;101891.41;5034089;28;20038;-62
2021/09/05 04:22:13;;;;;;;9.80;6.70;;;;;;;20.64;56.91;101890.50;5034515;28;20025;-62
2021/09/05 04:24:39;;;;;;;7.95;6.63;;;;;;;20.62;56.98;101884.44;5034749;28;20032;-62
2021/09/05 04:27:04;;;;;;;7.63;6.20;;;;;;;20.62;56.89;101892.38;5033643;28;20022;-62
2021/09/05 04:29:29;;;;;;;8.40;6.65;;;;;;;20.62;56.97;101898.53;5034729;28;20355;-63
2021/09/05 04:31:55;;;;;;;8.35;6.68;;;;;;;20.59;57.01;101896.09;5033811;28;20061;-62
2021/09/05 04:34:20;;;;;;;8.65;6.57;;;;;;;20.62;57.03;101901.16;5034101;28;20481;-63
2021/09/05 04:36:45;;;;;;;8.60;6.77;;;;;;;20.61;57.00;101902.13;5034210;28;20151;-62
2021/09/05 04:39:11;;;;;;;7.97;6.32;;;;;;;20.61;56.93;101902.13;5033426;28;20329;-62
2021/09/05 04:41:36;;;;;;;8.65;6.50;;;;;;;20.60;56.76;101900.47;5049645;28;20048;-62
2021/09/05 04:44:01;;;;;;;8.32;6.45;;;;;;;20.60;56.66;101897.81;5034044;28;20057;-62
2021/09/05 04:46:27;;;;;;;8.18;6.22;;;;;;;20.58;56.77;101899.69;5033921;28;20032;-62
2021/09/05 04:48:52;;;;;;;10.90;6.75;;;;;;;20.59;56.76;101906.69;5034018;28;20028;-62
2021/09/05 04:51:17;;;;;;;8.80;6.30;;;;;;;20.57;56.58;101903.31;5034047;28;20513;-63
2021/09/05 04:53:42;;;;;;;9.07;6.55;;;;;;;20.58;56.56;101904.16;5033136;28;20120;-61
2021/09/05 04:56:08;;;;;;;8.23;6.13;;;;;;;20.57;56.85;101910.41;5033599;28;20026;-62
2021/09/05 04:58:33;;;;;;;8.68;6.40;;;;;;;20.57;56.66;101899.81;5033769;28;20777;-63
2021/09/05 05:00:58;;;;;;;9.27;6.57;;;;;;;20.58;56.49;101918.25;5032935;28;20052;-62
2021/09/05 05:03:24;;;;;;;8.88;6.75;;;;;;;20.57;56.40;101911.28;5033973;28;20773;-63
2021/09/05 05:05:49;;;;;;;9.73;5.90;;;;;;;20.57;56.51;101913.06;5032468;28;20030;-63
2021/09/05 05:08:14;;;;;;;8.55;5.95;;;;;;;20.58;56.45;101920.06;5032908;28;20492;-63
2021/09/05 05:10:40;;;;;;;8.65;6.38;;;;;;;20.55;56.47;101905.22;5033510;28;20022;-63
2021/09/05 05:13:05;;;;;;;9.07;6.95;;;;;;;20.56;56.55;101914.03;5033203;28;20128;-62
2021/09/05 05:15:31;;;;;;;8.50;6.40;;;;;;;20.54;56.56;101914.16;5032823;28;20036;-62
2021/09/05 05:17:57;;;;;;;8.73;6.18;;;;;;;20.56;56.59;101916.69;5033297;28;20429;-62
2021/09/05 05:20:22;;;;;;;8.05;6.18;;;;;;;20.55;56.19;101921.13;5033238;28;20101;-61
2021/09/05 05:22:47;;;;;;;8.40;6.75;;;;;;;20.55;56.34;101921.13;5032534;28;20033;-63
2021/09/05 05:25:13;;;;;;;8.10;5.75;;;;;;;20.55;56.38;101926.41;5033182;28;20075;-62
2021/09/05 05:27:39;;;;;;;7.93;5.95;;;;;;;20.53;56.46;101916.91;5033219;28;20075;-63
2021/09/05 05:30:07;;;;;;;7.90;6.10;;;;;;;20.54;56.41;101930.03;5032324;28;20083;-62
2021/09/05 05:32:32;;;;;;;8.00;6.15;;;;;;;20.55;56.43;101930.88;5033082;28;20211;-62
2021/09/05 05:34:57;;;;;;;8.13;6.10;;;;;;;20.54;56.61;101935.34;5032886;28;20053;-61
2021/09/05 05:37:23;;;;;;;8.48;6.07;;;;;;;20.53;56.38;101933.63;5032316;28;20313;-62
2021/09/05 05:39:48;;;;;;;8.57;6.25;;;;;;;20.54;56.33;101931.84;5032709;28;20080;-62
2021/09/05 05:42:13;;;;;;;8.07;6.03;;;;;;;20.53;56.12;101936.28;5032457;28;20500;-62
2021/09/05 05:44:38;;;;;;;7.53;6.03;;;;;;;20.53;56.05;101938.09;5033099;28;20031;-62
2021/09/05 05:47:04;;;;;;;7.63;6.15;;;;;;;20.53;56.63;101936.28;5032729;28;20026;-62
2021/09/05 05:49:30;;;;;;;8.88;6.25;;;;;;;20.53;56.16;101940.75;5032323;28;20033;-62
2021/09/05 05:51:55;;;;;;;8.10;6.05;;;;;;;20.53;56.26;101944.22;5032615;28;20366;-62
2021/09/05 05:54:23;;;;;;;7.68;6.03;;;;;;;20.52;56.29;101939.91;5032589;28;20095;-62
2021/09/05 05:56:49;;;;;;;7.15;5.85;;;;;;;20.53;56.20;101948.69;5031576;28;20488;-62
2021/09/05 05:59:14;;;;;;;7.80;6.00;;;;;;;20.51;55.82;101951.44;5033060;28;20021;-63
2021/09/05 06:01:41;;;;;;;8.80;6.40;;;;;;;20.53;56.22;101951.34;5032870;28;20673;-63
2021/09/05 06:04:10;;;;;;;8.88;6.20;;;;;;;20.52;56.09;101953.16;5032002;28;20279;-62
2021/09/05 06:06:38;;;;;;;8.38;6.35;;;;;;;20.51;56.22;101945.31;5033010;28;20030;-63
2021/09/05 06:09:03;;;;;;;8.93;6.00;;;;;;;20.51;56.29;101948.81;5032620;28;20051;-63
2021/09/05 06:11:32;;;;;;;8.80;5.80;;;;;;;20.52;56.29;101947.84;5031864;28;20540;-62
2021/09/05 06:13:57;;;;;;;9.55;6.43;;;;;;;20.53;56.13;101951.34;5032506;28;20033;-62
2021/09/05 06:16:22;;;;;;;7.65;5.85;;;;;;;20.51;56.21;101951.44;5032618;28;20029;-62
2021/09/05 06:18:48;;;;;;;7.53;5.78;;;;;;;20.52;56.24;101955.81;5031512;28;20095;-62
2021/09/05 06:21:13;;;;;;;8.38;6.43;;;;;;;20.52;56.02;101955.81;5032612;28;20465;-63
2021/09/05 06:23:39;;;;;;;8.27;5.93;;;;;;;20.52;56.08;101954.94;5032697;28;20068;-63
2021/09/05 06:26:05;;;;;;;9.80;5.90;;;;;;;20.53;56.12;101960.13;5031564;28;20017;-63
2021/09/05 06:28:30;;;;;;;8.02;5.63;;;;;;;20.53;56.05;101961.94;5032874;28;20033;-62
2021/09/05 06:30:55;;;;;;;6.97;5.37;;;;;;;20.53;56.23;101965.41;5031810;28;20029;-62
2021/09/05 06:33:21;;;;;;;7.25;5.70;;;;;;;20.53;56.21;101968.06;5031954;28;20270;-62
2021/09/05 06:35:46;;;;;;;7.93;5.50;;;;;;;20.51;56.28;101961.22;5032363;28;20018;-62
2021/09/05 06:38:11;;;;;;;8.60;5.78;;;;;;;20.53;56.36;101967.22;5031877;28;20281;-63
2021/09/05 06:40:36;;;;;;;8.82;5.68;;;;;;;20.52;56.49;101969.03;5031196;28;20053;-63
2021/09/05 06:43:02;;;;;;;8.10;5.87;;;;;;;20.51;56.51;101970.00;5032062;28;20125;-64
2021/09/05 06:45:27;;;;;;;7.75;5.28;;;;;;;20.54;56.56;101963.63;5031453;28;20273;-62
2021/09/05 06:47:53;;;;;;;7.55;5.47;;;;;;;20.53;56.67;101962.75;5031980;28;20105;-63
2021/09/05 06:50:18;;;;;;;7.88;5.50;;;;;;;20.55;56.86;101968.78;5032283;28;20100;-62
2021/09/05 06:52:43;;;;;;;7.47;5.30;;;;;;;20.58;56.85;101968.56;5031450;28;20846;-63
2021/09/05 06:55:12;;;;;;;7.63;5.43;;;;;;;20.58;56.86;101971.22;5031563;28;20092;-60
2021/09/05 06:57:37;;;;;;;8.45;5.95;;;;;;;20.61;56.77;101976.28;5032302;28;20658;-62
2021/09/05 07:00:04;;;;;;;8.87;5.83;;;;;;;20.64;57.00;101983.19;5031580;28;20029;-64
2021/09/05 07:02:29;;;;;;;8.07;5.45;;;;;;;20.67;56.99;101987.44;5032396;28;20279;-63
2021/09/05 07:04:54;;;;;;;8.00;5.32;;;;;;;20.68;57.14;101986.44;5032426;28;20549;-65
2021/09/05 07:07:19;;;;;;;7.83;5.10;;;;;;;20.70;57.00;101992.50;5031951;28;20028;-62
2021/09/05 07:09:45;;;;;;;7.95;5.35;;;;;;;20.71;56.69;101992.41;5032288;28;20290;-62
2021/09/05 07:12:10;;;;;;;6.75;4.82;;;;;;;20.73;56.70;101994.91;5033438;28;20030;-64
2021/09/05 07:14:51;;;;;;;8.55;5.57;;;;;;;20.74;56.86;101999.25;5033390;28;20026;-62
2021/09/05 07:17:16;;;;;;;6.97;4.93;;;;;;;20.75;56.85;101998.31;5031964;28;20477;-61
2021/09/05 07:19:41;;;;;;;8.13;4.53;;;;;;;20.76;56.43;101998.19;5032044;28;20033;-60
2021/09/05 07:22:06;;;;;;;7.72;5.13;;;;;;;20.80;56.62;102002.28;5030689;28;20021;-61
2021/09/05 07:24:32;;;;;;;8.17;5.30;;;;;;;20.80;56.72;101999.63;5031528;28;20435;-62
2021/09/05 07:26:57;;;;;;;6.70;4.70;;;;;;;20.82;56.52;102005.69;5031182;28;20274;-63
2021/09/05 07:29:22;;;;;;;8.13;5.55;;;;;;;20.87;56.76;102013.28;5031723;28;20271;-60
2021/09/05 07:31:47;;;;;;;9.00;4.93;;;;;;;20.87;56.76;102010.63;5034840;28;20607;-62
2021/09/05 07:34:16;;;;;;;7.43;5.40;;;;;;;20.89;56.78;102016.66;5035364;28;20030;-64
2021/09/05 07:36:41;;;;;;;7.72;5.40;;;;;;;20.91;56.62;102009.44;5034310;28;20442;-61
2021/09/05 07:39:10;;;;;;;8.43;5.30;;;;;;;20.91;56.64;102008.59;5034763;28;20034;-61
2021/09/05 07:41:35;;;;;;;8.00;5.05;;;;;;;20.91;56.71;102016.53;5035498;28;20030;-61
2021/09/05 07:44:00;;;;;;;7.70;5.25;;;;;;;20.92;56.62;102012.91;5034357;28;20026;-61
2021/09/05 07:46:26;;;;;;;7.07;4.43;;;;;;;20.92;56.82;102013.78;5035287;28;20481;-60
2021/09/05 07:48:51;;;;;;;8.10;5.60;;;;;;;20.91;56.69;102014.72;5034087;28;20316;-61
2021/09/05 07:51:17;;;;;;;7.50;4.83;;;;;;;20.90;56.63;102015.69;5034925;28;20470;-62
2021/09/05 07:53:43;;;;;;;9.98;5.75;;;;;;;20.93;56.71;102017.28;5034763;28;20620;-61
2021/09/05 07:56:08;;;;;;;9.50;5.43;;;;;;;20.91;56.75;102025.34;5034122;28;20047;-61
2021/09/05 07:58:33;;;;;;;8.02;5.15;;;;;;;20.92;56.82;102018.22;5035049;28;20630;-64
2021/09/05 08:00:58;;;;;;;8.43;5.33;;;;;;;20.91;56.74;102025.34;5034699;28;20104;-60
2021/09/05 08:03:24;;;;;;;8.83;5.67;;;;;;;20.93;56.61;102031.34;5035501;28;20278;-62
2021/09/05 08:05:49;;;;;;;8.88;5.57;;;;;;;20.98;56.89;102031.88;5037493;28;20290;-62
2021/09/05 08:08:16;;;;;;;8.02;5.40;;;;;;;20.99;56.98;102022.94;5036520;28;20036;-62
2021/09/05 08:10:42;;;;;;;10.65;5.72;;;;;;;20.99;57.46;102020.28;5036684;28;20127;-60
2021/09/05 08:13:07;;;;;;;10.07;5.77;;;;;;;21.08;60.34;102033.81;5036508;28;20029;-61
2021/09/05 08:15:32;;;;;;;10.87;5.90;;;;;;;21.11;60.09;102030.94;5035077;28;20310;-61
2021/09/05 08:17:57;;;;;;;9.90;5.97;;;;;;;21.15;60.48;102040.34;5034489;28;20620;-62
2021/09/05 08:20:23;;;;;;;10.30;5.97;;;;;;;21.16;60.50;102040.25;5034843;28;20528;-61
2021/09/05 08:22:51;;;;;;;9.68;5.85;;;;;;;21.20;60.75;102040.84;5034233;28;20267;-60
2021/09/05 08:25:16;;;;;;;11.05;5.85;;;;;;;21.18;60.43;102040.13;5034009;28;20021;-62
2021/09/05 08:27:41;;;;;;;10.85;5.95;;;;;;;21.20;60.69;102044.38;5034759;28;20036;-62
2021/09/05 08:30:07;;;;;;;12.98;6.10;;;;;;;21.22;60.63;102044.25;5034425;28;20032;-63
2021/09/05 08:32:33;;;;;;;11.48;6.22;;;;;;;21.22;60.33;102040.72;5034485;28;20033;-62
2021/09/05 08:35:01;;;;;;;11.73;6.63;;;;;;;21.22;60.35;102046.03;5034884;28;20108;-62
2021/09/05 08:37:26;;;;;;;11.27;6.70;;;;;;;21.22;60.52;102049.53;5035350;28;20377;-63
2021/09/05 08:39:57;;;;;;;10.90;5.63;;;;;;;21.22;60.58;102048.69;5033829;28;20018;-62
2021/09/05 08:42:27;;;;;;;10.93;5.97;;;;;;;21.21;60.57;102047.84;5034700;28;20032;-60
2021/09/05 08:44:53;;;;;;;10.50;6.43;;;;;;;21.20;60.43;102056.75;5032704;28;20104;-60
2021/09/05 08:47:19;;;;;;;12.40;6.05;;;;;;;21.18;60.52;102058.69;5033466;28;20112;-59
2021/09/05 08:49:46;;;;;;;9.60;6.05;;;;;;;21.19;60.25;102055.06;5034395;28;20022;-62
2021/09/05 08:52:12;;;;;;;9.77;5.78;;;;;;;21.18;60.25;102045.44;5033413;28;20029;-62
2021/09/05 08:54:37;;;;;;;11.65;6.60;;;;;;;21.16;60.35;102050.84;5033831;28;20092;-60
2021/09/05 08:57:03;;;;;;;11.25;6.50;;;;;;;21.16;60.05;102052.66;5033990;28;20404;-61
2021/09/05 08:59:28;;;;;;;10.55;5.95;;;;;;;21.17;60.13;102056.97;5033318;28;20025;-59
2021/09/05 09:02:01;;;;;;;10.80;5.88;;;;;;;21.16;59.73;102060.59;5033830;28;20345;-61
2021/09/05 09:04:38;;;;;;;9.57;6.38;;;;;;;21.16;59.83;102058.78;5034069;28;20029;-60
2021/09/05 09:07:19;;;;;;;9.98;5.50;;;;;;;21.15;59.71;102053.59;5032990;28;20025;-61
2021/09/05 09:10:01;;;;;;;12.75;6.38;;;;;;;21.17;59.84;102067.59;5034020;28;20054;-62
2021/09/05 09:12:46;;;;;;;10.05;6.15;;;;;;;21.17;59.64;102059.63;5033865;28;20047;-62
2021/09/05 09:15:23;;;;;;;10.57;5.82;;;;;;;21.16;59.69;102063.25;5032953;28;20022;-59
2021/09/05 09:17:52;;;;;;;10.07;5.82;;;;;;;21.16;59.72;102061.44;5033426;28;20481;-62
2021/09/05 09:20:31;;;;;;;12.18;6.10;;;;;;;21.17;59.63;102062.28;5033107;28;20029;-63
2021/09/05 09:23:27;;;;;;;8.85;5.25;;;;;;;21.17;59.41;102064.94;5033387;28;20519;-63
2021/09/05 09:26:01;;;;;;;9.30;5.53;;;;;;;21.16;59.56;102058.78;5011866;28;20120;-63
2021/09/05 09:28:28;;;;;;;10.50;6.28;;;;;;;21.17;59.35;102060.50;5032925;28;20056;-63
2021/09/05 09:30:55;;;;;;;9.18;6.00;;;;;;;21.16;59.51;102050.84;5033059;28;20033;-62
2021/09/05 09:33:23;;;;;;;11.60;6.78;;;;;;;21.25;59.71;102056.41;5033496;28;20029;-71
2021/09/05 09:35:53;;;;;;;8.82;4.80;;;;;;;21.59;58.24;102061.81;5032414;28;20018;-73
2021/09/05 09:38:19;;;;;;;6.70;4.05;;;;;;;21.67;58.13;102062.09;5034110;28;20552;-62
2021/09/05 09:40:47;;;;;;;8.43;4.72;;;;;;;21.65;57.97;102064.00;5033931;28;20053;-61
2021/09/05 09:43:22;;;;;;;8.50;4.65;;;;;;;21.62;58.07;102057.13;5032367;28;20029;-61
2021/09/05 09:45:49;;;;;;;8.57;4.43;;;;;;;21.58;58.18;102060.97;5032943;28;20025;-61
2021/09/05 09:48:26;;;;;;;8.70;4.40;;;;;;;21.53;58.25;102052.53;5032954;28;20036;-62
2021/09/05 09:50:59;;;;;;;8.95;4.82;;;;;;;21.52;58.39;102057.00;5032534;28;20034;-62
2021/09/05 09:53:25;;;;;;;10.45;5.10;;;;;;;21.50;58.48;102058.06;5032344;28;20474;-62
2021/09/05 09:55:56;;;;;;;11.90;5.15;;;;;;;21.47;58.63;102061.75;5031707;28;20021;-60
2021/09/05 09:58:21;;;;;;;8.40;4.72;;;;;;;21.47;58.70;102064.41;5032898;28;20037;-60
2021/09/05 10:00:47;;;;;;;9.77;5.20;;;;;;;21.46;58.85;102062.75;5033012;28;20021;-61
2021/09/05 10:03:16;;;;;;;12.85;5.03;;;;;;;21.46;58.68;102060.09;5032175;28;20409;-60
2021/09/05 10:05:42;;;;;;;10.38;5.05;;;;;;;21.47;58.39;102066.22;5032831;28;20103;-60
2021/09/05 10:08:08;;;;;;;10.90;5.05;;;;;;;21.46;59.08;102061.88;5032562;28;20029;-67
2021/09/05 10:10:34;;;;;;;12.75;4.60;;;;;;;21.47;58.90;102066.22;5032056;28;20076;-67
2021/09/05 10:13:02;;;;;;;9.23;4.70;;;;;;;21.46;59.02;102064.53;5032380;28;20539;-69
2021/09/05 10:15:28;;;;;;;8.35;4.97;;;;;;;21.45;58.86;102063.69;5033351;28;20026;-71
2021/09/05 10:17:54;;;;;;;10.63;5.00;;;;;;;21.43;59.12;102064.75;5031985;28;20103;-72
2021/09/05 10:20:26;;;;;;;11.48;5.03;;;;;;;21.43;58.91;102065.63;5033200;28;20030;-69
2021/09/05 10:22:51;;;;;;;8.63;5.38;;;;;;;21.43;58.79;102073.56;5032656;28;20026;-70
2021/09/05 10:25:17;;;;;;;9.30;4.97;;;;;;;21.43;59.09;102062.97;5032145;28;20108;-68
2021/09/05 10:27:49;;;;;;;11.48;4.95;;;;;;;21.43;59.23;102062.09;5032532;28;20025;-69
2021/09/05 10:30:15;;;;;;;10.70;4.68;;;;;;;21.43;59.16;102054.16;5034322;28;20105;-71
2021/09/05 10:32:48;;;;;;;9.27;4.60;;;;;;;21.43;59.25;102056.81;5032954;28;20038;-70
2021/09/05 10:35:26;;;;;;;9.05;4.60;;;;;;;21.43;59.25;102052.38;5032962;28;20108;-69
2021/09/05 10:38:09;;;;;;;10.00;4.25;;;;;;;21.43;59.35;102044.41;5033225;28;20468;-70
2021/09/05 10:40:42;;;;;;;8.82;4.30;;;;;;;21.43;59.39;102048.84;5033494;28;20457;-72
2021/09/05 10:43:08;;;;;;;11.02;4.63;;;;;;;21.43;59.38;102046.19;5032699;28;20033;-70
2021/09/05 10:45:34;;;;;;;10.30;4.30;;;;;;;21.41;59.00;102048.13;5032328;28;20092;-70
2021/09/05 10:48:00;;;;;;;8.95;4.63;;;;;;;21.41;59.39;102048.13;5031890;28;20030;-71
2021/09/05 10:50:36;;;;;;;8.82;4.65;;;;;;;21.40;59.42;102039.34;5032213;28;20026;-71
2021/09/05 10:53:23;;;;;;;8.77;4.45;;;;;;;21.40;59.27;102046.47;5030920;28;20029;-72
2021/09/05 10:56:22;;;;;;;9.38;4.05;;;;;;;21.41;59.26;102040.19;5032374;28;20116;-70
2021/09/05 10:59:01;;;;;;;7.32;4.00;;;;;;;21.40;59.20;102047.28;4999222;28;20129;-73
2021/09/05 11:01:31;;;;;;;8.38;4.50;;;;;;;21.40;59.43;102034.03;5032510;28;20109;-73
2021/09/05 11:04:15;;;;;;;8.35;4.72;;;;;;;21.38;59.05;102039.44;5034023;28;20185;-73
2021/09/05 11:06:47;;;;;;;9.95;5.22;;;;;;;21.38;58.77;102042.09;5035477;28;20025;-70
2021/09/05 11:09:25;;;;;;;10.02;6.05;;;;;;;21.40;58.58;102047.28;5036076;28;20099;-72
2021/09/05 11:12:06;;;;;;;10.05;5.35;;;;;;;21.39;58.72;102048.25;5035851;28;20033;-71
2021/09/05 11:14:34;;;;;;;9.23;5.57;;;;;;;21.37;58.45;102037.75;5035319;28;20018;-71
2021/09/05 11:17:19;;;;;;;9.65;6.10;;;;;;;21.40;58.13;102042.00;5035955;28;20029;-71
2021/09/05 11:20:04;;;;;;;11.38;5.97;;;;;;;21.39;58.01;102037.63;5034959;28;20029;-70
2021/09/05 11:22:42;;;;;;;9.65;5.50;;;;;;;21.37;58.02;102031.63;5036023;28;20035;-70
2021/09/05 11:25:10;;;;;;;9.65;5.55;;;;;;;21.38;58.13;102044.75;5035272;28;20575;-70
2021/09/05 11:27:39;;;;;;;9.88;5.75;;;;;;;21.38;58.35;102036.81;5034918;28;20038;-71